Time;durP1;ratioP1;P1;durP2;ratioP2;P2;SDS_P1;SDS_P2;PMS_P1;PMS_P2;Temp;Humidity;BMP_temperature;BMP_pressure;BME280_temperature;BME280_humidity;BME280_pressure;Samples;Min_cycle;Max_cycle;Signal;HPM_P1;HPM_P2
2022/11/04 00:01:52;;;;;;;35.78;18.50;;;;;;;7.28;89.81;100457.80;1819435;78;25744;-78
2022/11/04 00:04:21;;;;;;;32.85;18.27;;;;;;;7.30;89.88;100454.47;1815758;78;25925;-76
2022/11/04 00:06:48;;;;;;;37.25;18.30;;;;;;;7.33;89.90;100450.98;1810992;78;26305;-76
2022/11/04 00:09:21;;;;;;;29.65;18.35;;;;;;;7.35;89.92;100452.14;1806505;78;26432;-76
2022/11/04 00:14:34;;;;;;;39.33;18.80;;;;;;;7.39;90.02;100442.31;1791787;78;25872;-76
2022/11/04 00:33:51;;;;;;;37.53;18.73;;;;;;;7.52;90.12;100421.78;1794743;79;26224;-77
2022/11/04 00:36:18;;;;;;;34.55;18.55;;;;;;;7.53;90.05;100411.44;1788466;79;25797;-76
2022/11/04 00:38:45;;;;;;;33.35;17.42;;;;;;;7.54;90.08;100416.62;1795991;78;28341;-76
2022/11/04 00:41:26;;;;;;;34.63;17.98;;;;;;;7.54;90.03;100412.63;1780776;78;25908;-75
2022/11/04 00:43:55;;;;;;;37.67;18.87;;;;;;;7.57;90.11;100407.45;1795795;78;25778;-77
2022/11/04 00:46:21;;;;;;;33.10;17.40;;;;;;;7.58;90.06;100414.43;1805255;78;26242;-76
2022/11/04 00:48:48;;;;;;;37.50;17.50;;;;;;;7.57;90.07;100410.92;1783599;78;25907;-77
2022/11/04 00:51:15;;;;;;;36.68;18.62;;;;;;;7.58;90.02;100406.43;1810288;78;27513;-76
2022/11/04 00:53:41;;;;;;;33.67;18.17;;;;;;;7.58;89.97;100389.95;1804844;78;25288;-77
2022/11/04 00:56:08;;;;;;;31.55;19.05;;;;;;;7.60;89.90;100393.77;1787987;78;26447;-76
2022/11/04 00:58:34;;;;;;;36.53;18.90;;;;;;;7.61;89.84;100388.25;1812633;78;25824;-76
2022/11/04 01:01:09;;;;;;;32.73;18.60;;;;;;;7.61;89.83;100380.25;1789146;78;25881;-76
2022/11/04 01:03:35;;;;;;;39.18;19.02;;;;;;;7.64;89.78;100371.92;1827849;77;27447;-76
2022/11/04 01:06:02;;;;;;;36.17;18.75;;;;;;;7.63;89.75;100368.91;1813298;77;25884;-77
2022/11/04 01:08:28;;;;;;;33.58;17.52;;;;;;;7.65;89.72;100359.44;1810636;78;25790;-76
2022/11/04 01:10:54;;;;;;;35.52;20.00;;;;;;;7.65;89.68;100344.77;1805941;78;26226;-75
2022/11/04 01:13:21;;;;;;;33.83;18.45;;;;;;;7.65;89.73;100342.94;1797079;78;26055;-77
2022/11/04 01:15:47;;;;;;;32.78;17.52;;;;;;;7.65;89.75;100334.11;1809523;78;27445;-76
2022/11/04 01:18:13;;;;;;;32.85;17.73;;;;;;;7.67;89.82;100324.09;1807021;78;26472;-76
2022/11/04 01:20:39;;;;;;;35.50;18.50;;;;;;;7.68;89.78;100319.92;1814516;78;25718;-77
2022/11/04 01:23:06;;;;;;;33.28;17.75;;;;;;;7.69;89.72;100314.09;1809633;78;25851;-76
2022/11/04 01:25:32;;;;;;;42.67;20.27;;;;;;;7.69;89.72;100315.42;1810045;78;26287;-76
2022/11/04 01:27:58;;;;;;;39.90;19.25;;;;;;;7.72;89.74;100319.05;1808993;78;27429;-76
2022/11/04 01:30:24;;;;;;;35.50;18.07;;;;;;;7.73;89.72;100320.23;1812427;78;25913;-76
2022/11/04 01:32:51;;;;;;;36.10;19.10;;;;;;;7.76;89.73;100312.39;1812847;78;25798;-76
2022/11/04 01:35:17;;;;;;;33.05;17.62;;;;;;;7.77;89.74;100312.20;1807058;78;26466;-76
2022/11/04 01:37:43;;;;;;;43.33;20.27;;;;;;;7.78;89.62;100319.72;1817506;78;25780;-76
2022/11/04 01:40:10;;;;;;;32.95;19.35;;;;;;;7.77;89.67;100309.55;1804611;78;28338;-76
2022/11/04 01:42:36;;;;;;;34.63;18.12;;;;;;;7.79;89.69;100307.53;1806876;78;26279;-75
2022/11/04 01:45:04;;;;;;;37.08;18.42;;;;;;;7.81;89.58;100306.01;1816068;78;25844;-77
2022/11/04 01:47:38;;;;;;;33.10;17.52;;;;;;;7.82;89.60;100303.69;1818210;78;25785;-76
2022/11/04 01:50:12;;;;;;;36.95;17.10;;;;;;;7.83;89.59;100300.00;1812057;78;25856;-77
2022/11/04 01:52:50;;;;;;;35.58;17.77;;;;;;;7.83;89.48;100293.86;1812390;78;27449;-76
2022/11/04 01:55:21;;;;;;;35.20;18.98;;;;;;;7.84;89.50;100292.34;1804297;78;26127;-76
2022/11/04 01:57:50;;;;;;;38.60;18.23;;;;;;;7.83;89.41;100292.52;1808573;78;26384;-77
2022/11/04 02:00:18;;;;;;;32.90;16.95;;;;;;;7.82;89.50;100294.85;1804099;78;25854;-75
2022/11/04 02:03:10;;;;;;;34.38;18.67;;;;;;;7.84;89.45;100278.17;1810127;78;25845;-76
2022/11/04 02:05:37;;;;;;;34.63;19.87;;;;;;;7.84;89.50;100269.67;1804742;78;27462;-76
2022/11/04 02:08:06;;;;;;;35.60;18.37;;;;;;;7.83;89.41;100261.86;1814503;78;25876;-75
2022/11/04 02:10:33;;;;;;;37.90;18.70;;;;;;;7.83;89.43;100262.67;1808528;78;25782;-76
2022/11/04 02:13:02;;;;;;;37.98;18.05;;;;;;;7.85;89.51;100259.31;1809952;78;26438;-76
2022/11/04 02:15:43;;;;;;;32.33;18.07;;;;;;;7.86;89.50;100256.99;1804460;78;25991;-76
2022/11/04 02:18:29;;;;;;;34.58;17.37;;;;;;;7.88;89.59;100258.14;1806607;78;27436;-76
2022/11/04 02:21:31;;;;;;;35.15;17.55;;;;;;;7.89;89.65;100252.62;1807071;78;26204;-76
2022/11/04 02:24:43;;;;;;;37.53;17.42;;;;;;;7.91;89.58;100245.80;1800913;78;26027;-75
2022/11/04 02:27:41;;;;;;;30.82;16.15;;;;;;;7.90;89.58;100244.96;1816328;78;26623;-77
2022/11/04 02:30:17;;;;;;;35.23;17.10;;;;;;;7.90;89.61;100243.63;1807600;78;26079;-76
2022/11/04 02:33:05;;;;;;;29.92;16.23;;;;;;;7.91;89.57;100245.30;1815313;78;27461;-76
2022/11/04 02:35:39;;;;;;;31.02;16.02;;;;;;;7.91;89.54;100231.13;1811532;78;26485;-76
2022/11/04 02:38:35;;;;;;;29.63;17.00;;;;;;;7.91;89.53;100233.30;1800383;78;25972;-76
2022/11/04 02:41:25;;;;;;;29.25;15.20;;;;;;;7.91;89.49;100229.80;1806177;78;25754;-76
2022/11/04 02:44:09;;;;;;;32.20;16.30;;;;;;;7.91;89.43;100231.13;1764046;77;25972;-76
2022/11/04 02:47:00;;;;;;;31.23;15.48;;;;;;;7.91;89.46;100223.97;1805660;78;27532;-76
2022/11/04 02:49:56;;;;;;;27.20;14.60;;;;;;;7.95;89.55;100211.09;1810786;78;25762;-76
2022/11/04 02:52:34;;;;;;;30.75;15.35;;;;;;;7.95;89.45;100213.77;1811185;78;26343;-76
2022/11/04 02:55:06;;;;;;;31.07;16.23;;;;;;;7.94;89.50;100215.59;1804983;78;25814;-76
2022/11/04 02:57:36;;;;;;;26.90;15.08;;;;;;;7.93;89.40;100200.61;1816803;78;26651;-77
2022/11/04 03:00:10;;;;;;;29.40;14.25;;;;;;;7.94;89.47;100200.09;1813717;78;28308;-75
2022/11/04 03:02:41;;;;;;;22.65;13.05;;;;;;;7.94;89.60;100198.25;1816560;78;25977;-76
2022/11/04 03:05:18;;;;;;;26.27;13.68;;;;;;;7.96;89.45;100203.40;1812119;78;25706;-77
2022/11/04 03:07:48;;;;;;;23.85;12.68;;;;;;;7.97;89.41;100198.41;1811169;78;25920;-76
2022/11/04 03:10:35;;;;;;;24.02;12.73;;;;;;;7.97;89.33;100195.24;1814240;78;25743;-77
2022/11/04 03:13:21;;;;;;;31.35;15.08;;;;;;;7.96;89.18;100192.73;1799702;78;27301;-76
2022/11/04 03:15:53;;;;;;;29.05;13.83;;;;;;;7.95;89.30;100193.26;1790474;79;25813;-76
2022/11/04 03:18:30;;;;;;;25.40;13.03;;;;;;;7.97;89.34;100190.41;1794020;78;25854;-76
2022/11/04 03:21:01;;;;;;;26.20;12.78;;;;;;;8.00;89.41;100192.73;1805695;78;25821;-77
2022/11/04 03:23:28;;;;;;;27.10;13.38;;;;;;;8.02;89.23;100192.84;1800350;78;25800;-75
2022/11/04 03:26:00;;;;;;;26.60;13.32;;;;;;;8.02;89.11;100190.70;1792985;78;27462;-75
2022/11/04 03:28:57;;;;;;;22.65;12.85;;;;;;;8.02;89.10;100190.70;1804029;78;25829;-76
2022/11/04 03:31:38;;;;;;;23.07;12.45;;;;;;;8.01;89.06;100195.70;1796077;78;25831;-76
2022/11/04 03:34:04;;;;;;;27.20;13.20;;;;;;;8.01;89.18;100195.20;1787008;78;26611;-75
2022/11/04 03:36:31;;;;;;;25.40;12.58;;;;;;;8.03;89.31;100183.84;1801557;78;26104;-77
2022/11/04 03:38:57;;;;;;;23.73;11.60;;;;;;;8.03;89.25;100198.52;1798351;79;27286;-76
2022/11/04 03:41:34;;;;;;;28.75;13.40;;;;;;;8.02;89.28;100195.51;1789646;78;26442;-75
2022/11/04 03:44:01;;;;;;;31.17;13.62;;;;;;;8.02;89.30;100204.04;1784139;79;26465;-76
2022/11/04 03:46:28;;;;;;;23.30;13.55;;;;;;;8.01;89.33;100201.88;1789826;79;25774;-76
2022/11/04 03:48:55;;;;;;;29.57;12.95;;;;;;;8.01;89.49;100207.20;1797280;78;25829;-77
2022/11/04 03:51:21;;;;;;;23.07;11.85;;;;;;;8.01;89.49;100204.54;1812119;78;27464;-76
2022/11/04 03:53:48;;;;;;;22.25;11.60;;;;;;;8.02;89.50;100199.52;1799587;78;25760;-77
2022/11/04 03:56:56;;;;;;;22.77;11.88;;;;;;;8.05;89.59;100197.83;1799810;79;26485;-76
2022/11/04 03:59:54;;;;;;;24.92;13.03;;;;;;;8.09;89.56;100190.28;1788951;79;25971;-76
2022/11/04 04:02:26;;;;;;;23.80;12.10;;;;;;;8.10;89.65;100187.46;1788746;79;26087;-76
2022/11/04 04:05:25;;;;;;;26.70;13.32;;;;;;;8.11;89.56;100180.27;1798253;78;27454;-76
2022/11/04 04:08:00;;;;;;;23.25;12.33;;;;;;;8.10;89.54;100172.79;1794549;79;25996;-76
2022/11/04 04:10:46;;;;;;;25.05;12.43;;;;;;;8.10;89.46;100178.12;1798289;78;25787;-76
2022/11/04 04:13:43;;;;;;;25.88;13.03;;;;;;;8.11;89.46;100177.09;1806038;77;26264;-75
2022/11/04 04:16:14;;;;;;;21.45;11.80;;;;;;;8.08;89.31;100174.81;1810744;78;25962;-76
2022/11/04 04:18:52;;;;;;;23.35;12.23;;;;;;;8.07;89.30;100165.14;1810828;78;27465;-75
2022/11/04 04:21:22;;;;;;;22.70;11.90;;;;;;;8.05;89.36;100169.83;1825258;78;25723;-76
2022/11/04 04:29:26;;;;;;;19.85;11.10;;;;;;;8.08;89.62;100181.98;1810691;78;25905;-75
2022/11/04 04:31:56;;;;;;;19.55;11.70;;;;;;;8.08;89.69;100173.48;1818741;78;27458;-75
2022/11/04 04:34:29;;;;;;;23.77;11.97;;;;;;;8.10;89.82;100167.95;1799006;78;25852;-76
2022/11/04 04:37:21;;;;;;;24.25;11.73;;;;;;;8.09;89.93;100168.95;1789541;78;25767;-77
2022/11/04 04:45:36;;;;;;;23.60;10.93;;;;;;;8.08;90.08;100165.47;1814839;78;27548;-76
2022/11/04 04:48:04;;;;;;;25.15;11.95;;;;;;;8.10;90.04;100166.13;1806069;78;26266;-75
2022/11/04 04:50:38;;;;;;;25.05;11.80;;;;;;;8.11;90.06;100155.76;1790819;78;25804;-76
2022/11/04 04:53:04;;;;;;;19.40;11.48;;;;;;;8.11;90.15;100151.75;1819388;78;25824;-75
2022/11/04 04:55:31;;;;;;;20.12;11.08;;;;;;;8.11;90.12;100157.59;1825636;78;25865;-75
2022/11/04 04:57:58;;;;;;;22.55;11.20;;;;;;;8.09;90.06;100155.61;1805899;78;27460;-76
2022/11/04 05:00:25;;;;;;;20.00;11.12;;;;;;;8.09;90.18;100153.78;1816258;78;26315;-76
2022/11/04 05:02:52;;;;;;;23.40;11.83;;;;;;;8.11;90.14;100151.75;1805646;78;26392;-77
2022/11/04 05:05:18;;;;;;;23.65;11.03;;;;;;;8.12;90.13;100139.25;1818206;78;26194;-76
2022/11/04 05:07:45;;;;;;;21.37;10.88;;;;;;;8.12;90.05;100133.42;1815701;78;25904;-76
2022/11/04 05:10:14;;;;;;;22.05;12.07;;;;;;;8.10;89.96;100132.78;1811434;78;27488;-75
2022/11/04 05:15:28;;;;;;;20.65;11.15;;;;;;;8.10;90.04;100125.27;1818029;78;26223;-77
2022/11/04 05:18:00;;;;;;;23.80;11.55;;;;;;;8.10;90.10;100125.27;1817174;78;26333;-76
2022/11/04 05:20:29;;;;;;;22.10;11.70;;;;;;;8.09;90.09;100118.27;1816722;78;25739;-76
2022/11/04 05:22:55;;;;;;;27.85;12.35;;;;;;;8.08;90.22;100117.95;1812070;78;27469;-76
2022/11/04 05:25:21;;;;;;;27.15;13.50;;;;;;;8.07;90.05;100117.63;1808625;78;25851;-75
2022/11/04 05:27:47;;;;;;;22.32;12.37;;;;;;;8.05;90.04;100117.81;1817500;78;26520;-76
2022/11/04 05:30:14;;;;;;;18.90;11.65;;;;;;;8.03;90.12;100117.17;1815952;78;26236;-76
2022/11/04 05:32:40;;;;;;;25.43;12.65;;;;;;;8.03;90.15;100121.17;1813020;78;25724;-77
2022/11/04 05:35:07;;;;;;;21.00;12.15;;;;;;;8.05;90.18;100108.98;1819585;78;27453;-76
2022/11/04 05:37:34;;;;;;;27.65;11.40;;;;;;;8.04;90.14;100100.14;1815375;78;25809;-76
2022/11/04 05:40:00;;;;;;;23.12;11.73;;;;;;;8.03;90.00;100095.83;1819381;78;25735;-76
2022/11/04 05:42:26;;;;;;;21.00;10.95;;;;;;;8.02;89.99;100099.49;1825539;77;26322;-76
2022/11/04 05:44:52;;;;;;;23.12;10.68;;;;;;;8.01;90.01;100100.52;1812416;77;25847;-77
2022/11/04 05:47:19;;;;;;;21.33;11.12;;;;;;;8.01;90.05;100097.02;1816750;77;27444;-76
2022/11/04 05:49:45;;;;;;;24.90;11.20;;;;;;;8.03;90.11;100089.66;1816781;77;25770;-76
2022/11/04 05:52:11;;;;;;;32.88;17.52;;;;;;;8.04;90.07;100090.00;1813901;77;25833;-76
2022/11/04 05:54:38;;;;;;;35.73;19.48;;;;;;;8.04;90.14;100083.33;1816724;77;26297;-76
2022/11/04 05:57:04;;;;;;;27.75;15.75;;;;;;;8.05;90.21;100082.30;1811621;77;25892;-77
2022/11/04 05:59:31;;;;;;;33.67;17.10;;;;;;;8.06;90.12;100085.31;1823179;77;28707;-76
2022/11/04 06:01:57;;;;;;;29.60;16.80;;;;;;;8.07;90.22;100090.45;1807476;78;25901;-77
2022/11/04 06:04:23;;;;;;;25.92;14.30;;;;;;;8.08;90.14;100091.28;1789074;78;25747;-76
2022/11/04 06:06:50;;;;;;;20.12;10.95;;;;;;;8.10;90.19;100095.93;1803349;78;44630;-77
2022/11/04 06:09:17;;;;;;;25.57;12.30;;;;;;;8.10;90.27;100098.09;1800238;78;25854;-76
2022/11/04 06:11:44;;;;;;;24.05;15.00;;;;;;;8.12;90.20;100100.58;1788376;79;27537;-77
2022/11/04 06:14:10;;;;;;;21.55;11.22;;;;;;;8.14;90.27;100095.88;1795408;78;25799;-76
2022/11/04 06:16:37;;;;;;;16.75;10.32;;;;;;;8.15;90.17;100097.52;1796382;78;25937;-76
2022/11/04 06:19:03;;;;;;;21.50;12.30;;;;;;;8.15;90.25;100098.86;1794079;79;26158;-77
2022/11/04 06:21:32;;;;;;;19.37;11.88;;;;;;;8.17;90.30;100107.00;1787128;78;26462;-76
2022/11/04 06:23:59;;;;;;;19.70;10.68;;;;;;;8.15;90.36;100102.36;1788246;78;28281;-76
2022/11/04 06:26:27;;;;;;;20.40;11.00;;;;;;;8.18;90.45;100107.34;1787881;79;26382;-76
2022/11/04 06:28:54;;;;;;;18.70;9.68;;;;;;;8.19;90.46;100114.84;1784423;79;26256;-76
2022/11/04 06:31:21;;;;;;;18.85;10.85;;;;;;;8.19;90.52;100129.52;1792089;78;26488;-76
2022/11/04 06:33:47;;;;;;;23.00;10.98;;;;;;;8.21;90.61;100122.97;1794572;78;25888;-76
2022/11/04 06:36:15;;;;;;;19.17;10.05;;;;;;;8.23;90.63;100119.61;1801696;79;27447;-77
2022/11/04 06:38:44;;;;;;;20.37;11.63;;;;;;;8.25;90.62;100112.77;1794050;79;25786;-76
2022/11/04 06:41:14;;;;;;;22.35;10.70;;;;;;;8.27;90.56;100118.29;1795235;79;25281;-75
2022/11/04 06:43:41;;;;;;;20.00;11.20;;;;;;;8.29;90.60;100114.93;1794782;78;26413;-76
2022/11/04 06:46:28;;;;;;;18.17;10.68;;;;;;;8.32;90.62;100123.05;1785548;78;25869;-75
2022/11/04 06:48:55;;;;;;;17.82;9.65;;;;;;;8.35;90.67;100131.53;1782079;78;28316;-75
2022/11/04 06:51:24;;;;;;;22.27;9.68;;;;;;;8.34;90.57;100141.06;1789504;78;26091;-76
2022/11/04 06:53:50;;;;;;;19.40;11.50;;;;;;;8.36;90.68;100145.71;1801424;78;25857;-76
2022/11/04 06:56:17;;;;;;;18.27;10.20;;;;;;;8.38;90.74;100143.16;1792775;78;25754;-76
2022/11/04 06:58:48;;;;;;;23.32;10.25;;;;;;;8.42;90.78;100143.64;1794854;79;26418;-76
2022/11/04 07:01:17;;;;;;;22.20;11.15;;;;;;;8.44;90.75;100129.60;1803187;78;27420;-76
2022/11/04 07:03:43;;;;;;;22.10;10.00;;;;;;;8.45;90.65;100136.08;1795254;79;25779;-75
2022/11/04 07:06:10;;;;;;;18.12;9.85;;;;;;;8.46;90.67;100131.58;1806302;78;25786;-76
2022/11/04 07:08:37;;;;;;;19.98;11.25;;;;;;;8.46;90.66;100124.41;1802982;78;25784;-77
2022/11/04 07:11:03;;;;;;;22.73;11.57;;;;;;;8.49;90.59;100129.36;1800194;79;26335;-76
2022/11/04 07:13:29;;;;;;;20.23;11.33;;;;;;;8.52;90.64;100121.49;1815629;76;28120;-76
2022/11/04 07:15:56;;;;;;;25.10;12.60;;;;;;;8.57;90.69;100118.27;1826158;77;26601;-76
2022/11/04 07:18:23;;;;;;;20.55;12.63;;;;;;;8.59;90.59;100114.91;1824151;77;25644;-76
2022/11/04 07:20:49;;;;;;;24.23;12.80;;;;;;;8.63;90.74;100117.02;1837427;77;25819;-76
2022/11/04 07:23:15;;;;;;;19.65;11.18;;;;;;;8.67;90.74;100119.64;1834106;77;25854;-76
2022/11/04 07:25:42;;;;;;;19.32;11.63;;;;;;;8.68;90.60;100122.65;1816285;77;28666;-77
2022/11/04 07:28:08;;;;;;;21.20;11.38;;;;;;;8.69;90.57;100120.28;1799689;78;25857;-76
2022/11/04 07:30:35;;;;;;;21.30;10.72;;;;;;;8.73;90.60;100118.89;1813133;77;25726;-76
2022/11/04 07:33:01;;;;;;;18.65;12.18;;;;;;;8.74;90.63;100112.55;1836964;76;25754;-76
2022/11/04 07:35:27;;;;;;;22.35;12.73;;;;;;;8.79;90.75;100099.98;1805344;77;26428;-76
2022/11/04 07:37:54;;;;;;;20.20;11.80;;;;;;;8.81;90.82;100098.75;1821785;76;27424;-76
2022/11/04 07:40:21;;;;;;;21.37;11.90;;;;;;;8.82;90.80;100089.73;1824063;77;25821;-77
2022/11/04 07:42:49;;;;;;;31.60;13.00;;;;;;;8.85;90.85;100094.72;1827509;77;25845;-76
2022/11/04 07:45:17;;;;;;;22.30;13.03;;;;;;;8.86;90.71;100088.84;1825481;77;25943;-77
2022/11/04 07:47:43;;;;;;;24.12;13.53;;;;;;;8.87;90.72;100089.17;1824987;77;25937;-76
2022/11/04 07:50:09;;;;;;;25.80;13.22;;;;;;;8.90;90.75;100087.45;1823534;77;26947;-76
2022/11/04 07:52:36;;;;;;;24.55;13.03;;;;;;;8.93;90.81;100081.74;1807906;77;26417;-76
2022/11/04 07:55:02;;;;;;;28.80;15.45;;;;;;;8.96;90.61;100075.50;1810325;77;25814;-76
2022/11/04 07:57:28;;;;;;;32.80;16.37;;;;;;;8.97;90.45;100072.33;1824280;77;26243;-75
2022/11/04 07:59:55;;;;;;;30.37;15.38;;;;;;;8.99;90.45;100074.30;1828631;77;25734;-75
2022/11/04 08:02:21;;;;;;;26.62;14.53;;;;;;;9.00;90.31;100075.44;1822939;77;27431;-77
2022/11/04 08:04:47;;;;;;;32.30;14.95;;;;;;;9.00;90.33;100070.63;1817058;77;25286;-75
2022/11/04 08:07:14;;;;;;;28.12;14.05;;;;;;;9.03;90.40;100071.56;1822818;77;25845;-76
2022/11/04 08:09:40;;;;;;;23.38;13.70;;;;;;;9.05;90.18;100068.20;1817600;77;25809;-77
2022/11/04 08:12:06;;;;;;;32.78;13.20;;;;;;;9.06;90.15;100074.70;1823744;77;26461;-75
2022/11/04 08:55:21;;;;;;;20.88;12.18;;;;;;;9.11;91.47;100056.24;1797249;77;26126;-75
2022/11/04 08:57:48;;;;;;;22.25;11.12;;;;;;;9.06;91.66;100052.00;1761124;80;25895;-75
2022/11/04 09:00:15;;;;;;;25.88;11.28;;;;;;;9.07;91.88;100057.64;1761577;80;27861;-75
2022/11/04 09:02:42;;;;;;;23.00;12.33;;;;;;;9.10;92.24;100051.94;1765953;80;25902;-76
2022/11/04 09:05:08;;;;;;;21.05;12.75;;;;;;;9.15;92.22;100043.35;1720153;82;25837;-75
2022/11/04 09:07:36;;;;;;;31.30;12.82;;;;;;;9.19;92.26;100045.95;1720152;81;26016;-76
2022/11/04 09:10:04;;;;;;;19.05;12.18;;;;;;;9.25;92.47;100039.34;1725473;82;25981;-76
2022/11/04 09:12:31;;;;;;;22.85;12.10;;;;;;;9.33;92.57;100038.36;1705888;83;27449;-76
2022/11/04 09:14:57;;;;;;;22.80;12.15;;;;;;;9.41;92.44;100041.42;1715160;81;26383;-77
2022/11/04 09:17:24;;;;;;;23.35;11.90;;;;;;;9.45;91.88;100031.50;1718525;81;26524;-76
2022/11/04 09:19:50;;;;;;;20.17;11.78;;;;;;;9.52;91.78;100035.53;1701161;83;26472;-76
2022/11/04 09:22:16;;;;;;;21.85;12.73;;;;;;;9.58;91.51;100036.92;1715434;82;25908;-75
2022/11/04 09:24:43;;;;;;;20.68;11.45;;;;;;;9.63;91.52;100033.67;1716227;81;27445;-76
2022/11/04 09:27:11;;;;;;;17.77;11.80;;;;;;;9.70;91.30;100031.38;1707784;82;25774;-76
2022/11/04 09:29:37;;;;;;;19.42;11.78;;;;;;;9.74;91.00;100033.14;1720454;81;25969;-76
2022/11/04 09:32:04;;;;;;;23.30;12.78;;;;;;;9.80;91.06;100025.16;1715914;81;25766;-75
2022/11/04 09:34:31;;;;;;;20.80;11.25;;;;;;;9.85;90.90;100020.06;1713507;82;25987;-77
2022/11/04 09:36:58;;;;;;;19.73;10.65;;;;;;;9.90;90.87;100022.16;1713170;82;27530;-76
2022/11/04 09:39:24;;;;;;;22.55;12.45;;;;;;;9.97;90.93;100018.98;1720282;81;25949;-75
2022/11/04 09:42:29;;;;;;;18.52;12.35;;;;;;;10.01;90.57;100015.73;1724515;82;25814;-76
2022/11/04 09:45:09;;;;;;;19.77;11.20;;;;;;;10.08;90.46;100017.94;1638837;85;26459;-76
2022/11/04 09:47:38;;;;;;;21.70;12.23;;;;;;;10.22;90.90;100004.66;1700725;83;26479;-76
2022/11/04 09:50:11;;;;;;;22.85;10.75;;;;;;;10.35;90.90;99999.37;1711021;82;27454;-85
2022/11/04 09:52:43;;;;;;;24.20;12.60;;;;;;;10.44;90.80;100001.66;1695183;83;26296;-83
2022/11/04 09:55:40;;;;;;;17.17;10.58;;;;;;;10.52;90.59;99996.12;1712459;82;26739;-82
2022/11/04 09:58:11;;;;;;;19.65;11.22;;;;;;;10.57;89.82;99984.30;1710320;83;26335;-83
2022/11/04 10:00:39;;;;;;;16.25;10.43;;;;;;;10.59;89.33;99982.24;1703721;83;25360;-79
2022/11/04 10:03:38;;;;;;;24.00;11.80;;;;;;;10.61;89.24;99979.36;1699028;83;28009;-75
2022/11/04 10:06:30;;;;;;;22.55;12.47;;;;;;;10.65;89.16;99980.09;1727845;81;25977;-76
2022/11/04 10:09:29;;;;;;;20.62;11.08;;;;;;;10.66;88.62;99982.27;1732754;81;25822;-76
2022/11/04 10:12:16;;;;;;;22.62;11.20;;;;;;;10.67;88.74;99982.59;1707851;82;26474;-75
2022/11/04 10:15:14;;;;;;;20.50;11.35;;;;;;;10.69;88.61;99969.82;1691590;83;25531;-75
2022/11/04 10:18:03;;;;;;;17.27;10.50;;;;;;;10.70;88.35;99966.09;1725032;82;27489;-75
2022/11/04 10:20:38;;;;;;;21.37;12.00;;;;;;;10.75;88.69;99960.45;1714595;82;25836;-76
2022/11/04 10:23:33;;;;;;;19.62;11.48;;;;;;;10.88;89.06;99956.14;1721007;82;25933;-75
2022/11/04 10:26:08;;;;;;;18.15;11.12;;;;;;;10.97;88.60;99958.94;1764346;80;25980;-75
2022/11/04 10:28:45;;;;;;;18.32;12.20;;;;;;;11.03;88.01;99956.27;1764467;80;26473;-76
2022/11/04 10:31:17;;;;;;;17.45;11.25;;;;;;;11.05;87.31;99960.08;1758102;80;27412;-75
2022/11/04 10:33:54;;;;;;;20.70;11.75;;;;;;;11.06;87.33;99963.05;1768200;80;26115;-75
2022/11/04 10:39:34;;;;;;;19.98;11.15;;;;;;;11.16;87.03;99952.77;1668811;79;25775;-76
2022/11/04 10:42:02;;;;;;;23.22;12.00;;;;;;;11.24;87.32;99953.89;1672067;85;26375;-76
2022/11/04 10:44:34;;;;;;;17.80;11.45;;;;;;;11.30;86.68;99953.06;1663868;85;28277;-75
2022/11/04 10:47:34;;;;;;;18.60;12.63;;;;;;;11.35;86.65;99951.94;1651891;84;25975;-75
2022/11/04 10:50:26;;;;;;;19.55;11.70;;;;;;;11.38;86.11;99945.63;1678477;82;26398;-76
2022/11/04 10:53:16;;;;;;;21.70;12.28;;;;;;;11.40;86.09;99940.05;1676732;84;26424;-76
2022/11/04 10:55:55;;;;;;;20.77;12.33;;;;;;;11.38;85.55;99939.44;1670822;84;25812;-76
2022/11/04 10:58:25;;;;;;;20.32;11.95;;;;;;;11.37;85.38;99937.30;1676285;84;27161;-77
2022/11/04 11:00:53;;;;;;;19.25;13.00;;;;;;;11.38;85.70;99931.39;1678458;84;26440;-77
2022/11/04 11:03:33;;;;;;;29.05;13.18;;;;;;;11.41;85.92;99929.14;1680196;84;25878;-77
2022/11/04 11:06:30;;;;;;;17.12;10.95;;;;;;;11.45;86.10;99930.37;1679701;84;25835;-77
2022/11/04 11:09:13;;;;;;;19.82;11.05;;;;;;;11.50;85.99;99930.55;1671483;84;25765;-77
2022/11/04 11:11:46;;;;;;;26.87;14.30;;;;;;;11.56;85.35;99922.20;1681208;84;27484;-77
2022/11/04 11:14:33;;;;;;;21.10;12.65;;;;;;;11.60;85.50;99926.11;1678766;84;26700;-76
2022/11/04 11:17:23;;;;;;;24.77;13.28;;;;;;;11.65;85.46;99926.31;1686885;84;25832;-78
2022/11/04 11:20:23;;;;;;;29.45;14.00;;;;;;;11.70;85.42;99925.72;1679706;84;26371;-76
2022/11/04 11:22:50;;;;;;;18.00;11.80;;;;;;;11.75;85.34;99919.19;1678657;84;26020;-77
2022/11/04 11:25:33;;;;;;;17.40;10.72;;;;;;;11.79;85.13;99913.70;1690614;84;27550;-77
2022/11/04 11:28:11;;;;;;;21.15;11.50;;;;;;;11.85;85.01;99913.69;1663707;84;26024;-77
2022/11/04 11:30:51;;;;;;;22.32;12.73;;;;;;;11.88;84.61;99903.05;1707861;83;25838;-77
2022/11/04 11:33:37;;;;;;;20.15;12.28;;;;;;;11.93;84.64;99893.86;1693300;83;26019;-77
2022/11/04 11:36:11;;;;;;;19.23;11.83;;;;;;;11.98;84.54;99895.36;1696528;83;25829;-76
2022/11/04 11:38:51;;;;;;;22.55;12.40;;;;;;;12.00;84.19;99899.48;1694637;82;27510;-76
2022/11/04 11:41:22;;;;;;;25.37;12.07;;;;;;;12.06;84.27;99899.17;1670462;82;26666;-76
2022/11/04 11:43:51;;;;;;;20.37;11.12;;;;;;;12.14;83.85;99888.19;1703547;82;25780;-77
2022/11/04 11:46:30;;;;;;;19.10;10.65;;;;;;;12.23;83.81;99890.39;1701640;82;26055;-77
2022/11/04 11:49:03;;;;;;;19.80;11.48;;;;;;;12.32;83.55;99889.11;1701856;83;25758;-77
2022/11/04 11:51:36;;;;;;;18.75;9.75;;;;;;;12.40;83.22;99886.70;1704463;82;27414;-77
2022/11/04 11:54:32;;;;;;;17.57;10.40;;;;;;;12.46;82.93;99902.47;1700917;84;25803;-77
2022/11/04 11:57:02;;;;;;;23.83;12.28;;;;;;;12.49;82.66;99889.96;1697974;83;25794;-78
2022/11/04 11:59:50;;;;;;;15.53;10.40;;;;;;;12.51;82.31;99883.31;1700939;84;25943;-77
2022/11/04 12:02:37;;;;;;;22.93;12.37;;;;;;;12.52;82.22;99880.11;1693737;84;25932;-78
2022/11/04 12:05:08;;;;;;;23.45;12.25;;;;;;;12.52;82.07;99887.66;1716201;82;27085;-77
2022/11/04 12:07:50;;;;;;;;;;;;;;;12.52;81.95;99874.22;1690486;83;25840;-77
2022/11/04 12:10:28;;;;;;;19.98;11.33;;;;;;;12.51;81.60;99885.20;1693624;83;25838;-77
2022/11/04 12:13:24;;;;;;;17.12;10.43;;;;;;;12.50;81.65;99883.53;1711272;83;25752;-76
2022/11/04 12:16:48;;;;;;;25.05;12.43;;;;;;;12.50;81.87;99883.53;1672728;83;25857;-76
2022/11/04 12:19:39;;;;;;;19.82;10.98;;;;;;;12.53;81.93;99882.57;1682304;83;27484;-76
2022/11/04 12:22:20;;;;;;;19.40;9.28;;;;;;;12.54;82.06;99882.89;1690443;83;25914;-77
2022/11/04 12:24:52;;;;;;;;;;;;;;;12.54;81.46;99885.58;1685650;84;25742;-77
2022/11/04 12:28:03;;;;;;;20.72;11.10;;;;;;;12.52;81.19;99879.59;1685807;84;25795;-77
2022/11/04 12:30:35;;;;;;;17.37;10.38;;;;;;;12.50;81.24;99880.34;1669015;83;26266;-76
2022/11/04 12:33:31;;;;;;;17.62;10.58;;;;;;;12.46;80.99;99877.78;1713393;83;28335;-76
2022/11/04 12:36:12;;;;;;;26.82;11.15;;;;;;;12.43;80.79;99878.20;1709789;83;25837;-76
2022/11/04 12:38:42;;;;;;;;;;;;;;;12.37;80.49;99877.22;1715393;83;25994;-76
2022/11/04 12:41:51;;;;;;;24.95;11.95;;;;;;;12.35;80.59;99884.66;1711276;83;25844;-78
2022/11/04 12:44:34;;;;;;;17.00;10.25;;;;;;;12.31;81.18;99884.80;1697448;83;25773;-76
2022/11/04 12:47:18;;;;;;;15.48;9.63;;;;;;;12.28;80.72;99879.02;1708765;83;27961;-76
2022/11/04 12:49:56;;;;;;;22.02;11.05;;;;;;;12.26;80.88;99869.00;1677969;83;25767;-78
2022/11/04 12:52:48;;;;;;;24.32;11.28;;;;;;;12.25;80.92;99867.38;1683719;84;26433;-77
2022/11/04 12:55:43;;;;;;;20.12;11.25;;;;;;;12.23;81.15;99863.54;1697097;83;25911;-76
2022/11/04 12:58:39;;;;;;;20.62;10.55;;;;;;;12.22;80.89;99865.94;1705850;83;25877;-77
2022/11/04 13:01:33;;;;;;;17.82;10.98;;;;;;;12.20;80.82;99859.97;1700148;83;28591;-76
2022/11/04 13:04:08;;;;;;;21.07;11.45;;;;;;;12.19;80.68;99855.61;1704452;83;26454;-76
2022/11/04 13:06:55;;;;;;;21.33;10.60;;;;;;;12.20;80.47;99857.28;1705535;83;25771;-76
2022/11/04 13:09:33;;;;;;;20.50;11.12;;;;;;;12.21;81.13;99866.96;1713914;83;26401;-77